createdAt,value
2018-11-05T00:00:32.200Z,100.30
2018-11-05T00:03:01.791Z,49.07
2018-11-05T00:05:31.025Z,18.63
2018-11-05T00:08:00.245Z,16.63
2018-11-05T00:10:29.543Z,10.00
2018-11-05T00:12:58.921Z,7.87
2018-11-05T00:15:28.322Z,7.53
2018-11-05T00:17:57.430Z,6.00
2018-11-05T00:20:26.536Z,11.77
2018-11-05T00:22:55.889Z,6.50
2018-11-05T00:25:25.016Z,7.87
2018-11-05T00:27:53.993Z,7.27
2018-11-05T00:30:23.244Z,7.03
2018-11-05T00:32:52.629Z,5.87
2018-11-05T00:35:21.893Z,11.10
2018-11-05T00:37:51.135Z,6.07
2018-11-05T00:40:20.333Z,7.97
2018-11-05T00:42:49.515Z,5.97
2018-11-05T00:45:19.628Z,5.73
2018-11-05T00:47:48.925Z,4.80
2018-11-05T00:50:18.151Z,4.50
2018-11-05T00:52:47.504Z,7.93
2018-11-05T00:55:16.718Z,5.63
2018-11-05T00:57:45.865Z,4.97
2018-11-05T01:00:16.477Z,5.17
2018-11-05T01:02:45.852Z,4.73
2018-11-05T01:05:16.397Z,6.23
2018-11-05T01:07:46.077Z,6.33
2018-11-05T01:10:15.957Z,5.00
2018-11-05T01:12:45.433Z,9.87
2018-11-05T01:15:15.781Z,7.50
2018-11-05T01:17:45.055Z,3.87
2018-11-05T01:20:15.281Z,6.00
2018-11-05T01:22:44.545Z,5.63
2018-11-05T01:25:13.990Z,7.03
2018-11-05T01:27:43.394Z,7.23
2018-11-05T01:30:13.603Z,9.47
2018-11-05T01:32:42.909Z,11.43
2018-11-05T01:35:13.487Z,9.73
2018-11-05T01:37:42.709Z,12.73
2018-11-05T01:40:13.586Z,9.30
2018-11-05T01:42:42.938Z,7.33
2018-11-05T01:45:13.310Z,8.43
2018-11-05T01:47:43.069Z,9.33
2018-11-05T01:50:14.296Z,6.53
2018-11-05T01:52:44.013Z,9.30
2018-11-05T01:55:13.434Z,7.90
2018-11-05T01:57:42.850Z,6.23
2018-11-05T02:00:16.716Z,10.47
2018-11-05T02:02:46.663Z,8.73
2018-11-05T02:05:15.954Z,7.43
2018-11-05T02:07:45.957Z,8.07
2018-11-05T02:10:17.673Z,9.20
2018-11-05T02:12:47.047Z,6.77
2018-11-05T02:15:16.210Z,5.63
2018-11-05T02:17:46.381Z,8.83
2018-11-05T02:20:16.359Z,8.97
2018-11-05T02:22:45.661Z,10.97
2018-11-05T02:25:15.241Z,10.43
2018-11-05T02:27:44.390Z,10.83
2018-11-05T02:30:15.723Z,7.53
2018-11-05T02:32:45.160Z,7.80
2018-11-05T02:35:15.133Z,7.93
2018-11-05T02:37:46.517Z,8.67
2018-11-05T02:40:17.103Z,7.00
2018-11-05T02:42:46.712Z,6.10
2018-11-05T02:45:16.954Z,8.83
2018-11-05T02:47:46.145Z,10.70
2018-11-05T02:50:15.786Z,10.03
2018-11-05T02:52:45.858Z,10.27
2018-11-05T02:55:14.898Z,7.10
2018-11-05T02:57:45.202Z,9.00
2018-11-05T03:00:19.092Z,10.07
2018-11-05T03:02:48.640Z,7.13
2018-11-05T03:05:19.709Z,11.93
2018-11-05T03:07:50.085Z,12.80
2018-11-05T03:10:19.252Z,6.83
2018-11-05T03:12:49.097Z,9.67
2018-11-05T03:15:19.321Z,8.27
2018-11-05T03:17:48.574Z,15.00
2018-11-05T03:20:17.993Z,11.20
2018-11-05T03:22:47.366Z,6.47
2018-11-05T03:25:16.690Z,6.87
2018-11-05T03:27:46.033Z,11.60
2018-11-05T03:30:17.059Z,10.67
2018-11-05T03:32:46.699Z,10.00
2018-11-05T03:35:16.181Z,8.40
2018-11-05T03:37:46.474Z,13.33
2018-11-05T03:40:16.087Z,12.53
2018-11-05T03:42:45.513Z,11.37
2018-11-05T03:45:15.917Z,12.03
2018-11-05T03:47:45.236Z,9.37
2018-11-05T03:50:17.798Z,8.40
2018-11-05T03:52:47.395Z,9.03
2018-11-05T03:55:17.561Z,8.20
2018-11-05T03:57:46.835Z,7.43
2018-11-05T04:00:17.128Z,8.07
2018-11-05T04:02:46.478Z,12.83
2018-11-05T04:05:15.873Z,14.17
2018-11-05T04:07:45.059Z,15.27
2018-11-05T04:10:14.867Z,13.53
2018-11-05T04:12:44.147Z,13.80
2018-11-05T04:15:13.825Z,12.77
2018-11-05T04:17:43.501Z,8.30
2018-11-05T04:20:13.927Z,5.07
2018-11-05T04:22:44.232Z,11.50
2018-11-05T04:25:13.414Z,13.57
2018-11-05T04:27:42.646Z,17.83
2018-11-05T04:30:14.626Z,15.97
2018-11-05T04:32:44.071Z,13.73
2018-11-05T04:35:13.899Z,15.33
2018-11-05T04:37:43.261Z,16.67
2018-11-05T04:40:12.583Z,23.17
2018-11-05T04:42:41.699Z,54.27
2018-11-05T04:45:13.089Z,61.50
2018-11-05T04:47:42.958Z,31.10
2018-11-05T04:50:13.401Z,22.47
2018-11-05T04:52:43.607Z,17.90
2018-11-05T04:55:13.067Z,15.10
2018-11-05T04:57:42.218Z,13.47
2018-11-05T05:00:14.108Z,11.60
2018-11-05T05:02:43.542Z,14.27
2018-11-05T05:05:14.029Z,17.00
2018-11-05T05:07:43.366Z,14.90
2018-11-05T05:10:12.725Z,15.33
2018-11-05T05:12:42.849Z,14.77
2018-11-05T05:15:12.333Z,10.07
2018-11-05T05:17:41.851Z,10.03
2018-11-05T05:20:13.446Z,11.37
2018-11-05T05:22:43.187Z,14.67
2018-11-05T05:25:12.643Z,16.93
2018-11-05T05:27:42.770Z,17.60
2018-11-05T05:30:16.143Z,14.23
2018-11-05T05:32:46.076Z,12.83
2018-11-05T05:35:16.340Z,12.90
2018-11-05T05:37:48.164Z,16.07
2018-11-05T05:40:17.941Z,13.97
2018-11-05T05:42:47.219Z,14.03
2018-11-05T05:45:16.399Z,11.63
2018-11-05T05:47:45.967Z,18.90
2018-11-05T05:50:16.860Z,10.73
2018-11-05T05:52:47.709Z,13.03
2018-11-05T05:55:17.081Z,12.23
2018-11-05T05:57:46.430Z,11.70
2018-11-05T06:00:16.997Z,10.87
2018-11-05T06:02:46.133Z,27.57
2018-11-05T06:05:15.858Z,30.43
2018-11-05T06:07:45.197Z,25.10
2018-11-05T06:10:15.309Z,13.33
2018-11-05T06:12:44.961Z,64.03
2018-11-05T06:15:15.355Z,39.70
2018-11-05T06:17:44.897Z,31.67
2018-11-05T06:20:16.077Z,22.57
2018-11-05T06:22:46.204Z,24.03
2018-11-05T06:25:15.395Z,17.37
2018-11-05T06:27:44.626Z,31.37
2018-11-05T06:30:16.884Z,20.07
2018-11-05T06:32:46.955Z,18.63
2018-11-05T06:35:16.362Z,17.27
2018-11-05T06:37:46.023Z,17.33
2018-11-05T06:40:16.613Z,16.87
2018-11-05T06:42:46.063Z,26.97
2018-11-05T06:45:17.527Z,14.00
2018-11-05T06:47:47.713Z,32.73
2018-11-05T06:50:20.982Z,39.73
2018-11-05T06:52:50.416Z,22.70
2018-11-05T06:55:19.764Z,21.00
2018-11-05T06:57:49.569Z,39.37
2018-11-05T07:00:23.311Z,40.40
2018-11-05T07:02:52.536Z,30.77
2018-11-05T07:05:21.749Z,17.73
2018-11-05T07:07:50.970Z,35.50
2018-11-05T07:10:20.350Z,19.47
2018-11-05T07:12:49.541Z,18.87
2018-11-05T07:15:19.491Z,21.70
2018-11-05T07:17:49.767Z,11.70
2018-11-05T07:20:20.309Z,20.40
2018-11-05T07:22:50.278Z,20.20
2018-11-05T07:25:19.625Z,16.60
2018-11-05T07:27:49.006Z,17.23
2018-11-05T07:30:21.490Z,21.40
2018-11-05T07:32:51.839Z,21.00
2018-11-05T07:35:21.151Z,26.97
2018-11-05T07:37:50.435Z,26.23
2018-11-05T07:40:20.254Z,23.30
2018-11-05T07:42:49.529Z,17.77
2018-11-05T07:45:21.231Z,25.33
2018-11-05T07:47:50.445Z,25.70
2018-11-05T07:50:20.579Z,20.30
2018-11-05T07:52:50.565Z,18.93
2018-11-05T07:55:20.092Z,21.03
2018-11-05T07:57:50.239Z,21.70
2018-11-05T08:00:24.397Z,30.23
2018-11-05T08:02:55.244Z,22.20
2018-11-05T08:05:24.909Z,21.73
2018-11-05T08:07:54.299Z,22.07
2018-11-05T08:10:23.613Z,22.70
2018-11-05T08:12:52.761Z,18.43
2018-11-05T08:15:23.245Z,24.90
2018-11-05T08:17:53.148Z,18.73
2018-11-05T08:20:22.372Z,44.27
2018-11-05T08:22:51.694Z,22.53
2018-11-05T08:25:20.867Z,21.07
2018-11-05T08:27:50.165Z,20.43
2018-11-05T08:30:23.733Z,63.73
2018-11-05T08:32:53.120Z,17.40
2018-11-05T08:35:22.742Z,23.17
2018-11-05T08:37:52.577Z,14.63
2018-11-05T08:40:23.422Z,17.70
2018-11-05T08:42:53.679Z,12.97
2018-11-05T08:45:24.238Z,19.10
2018-11-05T08:47:53.534Z,11.30
2018-11-05T08:50:23.401Z,17.93
2018-11-05T08:52:52.717Z,19.83
2018-11-05T08:55:24.292Z,15.77
2018-11-05T08:57:53.625Z,20.47
2018-11-05T09:00:27.911Z,17.03
2018-11-05T09:02:57.058Z,11.90
2018-11-05T09:05:26.759Z,15.77
2018-11-05T09:07:56.461Z,16.97
2018-11-05T09:10:25.813Z,21.77
2018-11-05T09:12:55.156Z,25.37
2018-11-05T09:15:24.889Z,12.77
2018-11-05T09:17:54.200Z,17.60
2018-11-05T09:20:23.499Z,23.23
2018-11-05T09:22:53.204Z,6.17
2018-11-05T09:25:22.485Z,7.93
2018-11-05T09:27:51.721Z,6.77
2018-11-05T09:30:22.401Z,8.63
2018-11-05T09:32:51.539Z,13.13
2018-11-05T09:35:20.954Z,12.63
2018-11-05T09:37:50.162Z,5.67
2018-11-05T09:40:22.683Z,6.73
2018-11-05T09:42:52.413Z,10.87
2018-11-05T09:45:23.422Z,7.80
2018-11-05T09:47:52.885Z,6.80
2018-11-05T09:50:22.149Z,8.80
2018-11-05T09:52:51.618Z,12.10
2018-11-05T09:55:21.098Z,8.50
2018-11-05T09:57:50.374Z,16.43
2018-11-05T10:00:21.775Z,11.63
2018-11-05T10:03:00.390Z,35.47
2018-11-05T10:05:29.861Z,74.97
2018-11-05T10:07:59.164Z,7.40
2018-11-05T10:10:28.625Z,7.97
2018-11-05T10:12:58.065Z,7.07
2018-11-05T10:15:27.440Z,6.87
2018-11-05T10:17:56.614Z,9.90
2018-11-05T10:20:26.411Z,8.23
2018-11-05T10:22:55.717Z,66.77
2018-11-05T10:25:24.938Z,17.67
2018-11-05T10:27:54.199Z,38.57
2018-11-05T10:30:24.841Z,7.27
2018-11-05T10:32:53.974Z,8.20
2018-11-05T10:35:28.473Z,15.17
2018-11-05T10:37:57.788Z,13.33
2018-11-05T10:40:27.043Z,24.73
2018-11-05T10:42:56.629Z,8.97
2018-11-05T10:45:25.983Z,10.97
2018-11-05T10:47:55.323Z,6.87
2018-11-05T10:50:24.904Z,10.23
2018-11-05T10:52:54.119Z,6.93
2018-11-05T10:55:23.335Z,17.83
2018-11-05T10:57:52.823Z,12.43
2018-11-05T11:00:27.905Z,12.47
2018-11-05T11:03:02.395Z,11.60
2018-11-05T11:05:32.335Z,13.20
2018-11-05T11:08:02.355Z,17.93
2018-11-05T11:10:32.391Z,14.63
2018-11-05T11:13:01.621Z,13.07
2018-11-05T11:15:31.140Z,15.93
2018-11-05T11:18:00.389Z,17.53
2018-11-05T11:20:29.593Z,14.17
2018-11-05T11:22:59.233Z,15.47
2018-11-05T11:25:28.554Z,14.70
2018-11-05T11:27:57.970Z,11.80
2018-11-05T11:30:27.438Z,13.10
2018-11-05T11:32:56.719Z,12.10
2018-11-05T11:35:26.023Z,13.97
2018-11-05T11:37:55.487Z,13.00
2018-11-05T11:40:24.886Z,18.40
2018-11-05T11:42:54.315Z,14.30
2018-11-05T11:45:24.210Z,16.07
2018-11-05T11:47:53.460Z,15.73
2018-11-05T11:50:22.798Z,7.90
2018-11-05T11:52:52.599Z,14.03
2018-11-05T11:55:22.843Z,11.77
2018-11-05T11:57:52.594Z,10.13
2018-11-05T12:00:24.515Z,9.00
2018-11-05T12:02:54.289Z,10.73
2018-11-05T12:05:23.735Z,10.83
2018-11-05T12:07:52.991Z,9.03
2018-11-05T12:10:23.818Z,5.87
2018-11-05T12:12:53.102Z,8.73
2018-11-05T12:15:22.851Z,14.13
2018-11-05T12:17:53.149Z,15.93
2018-11-05T12:20:23.636Z,31.13
2018-11-05T12:22:53.628Z,48.07
2018-11-05T12:25:22.783Z,34.43
2018-11-05T12:27:51.888Z,11.80
2018-11-05T12:30:22.609Z,8.73
2018-11-05T12:32:52.690Z,17.30
2018-11-05T12:35:22.049Z,13.27
2018-11-05T12:37:52.319Z,10.43
2018-11-05T12:40:22.342Z,12.53
2018-11-05T12:42:51.944Z,8.37
2018-11-05T12:45:21.269Z,14.90
2018-11-05T12:47:50.554Z,14.57
2018-11-05T12:50:24.318Z,12.30
2018-11-05T12:52:54.886Z,13.07
2018-11-05T12:55:24.485Z,15.10
2018-11-05T12:57:53.715Z,23.10
2018-11-05T13:00:23.995Z,21.67
2018-11-05T13:02:55.615Z,8.37
2018-11-05T13:05:26.622Z,9.00
2018-11-05T13:07:56.196Z,11.60
2018-11-05T13:10:27.258Z,12.40
2018-11-05T13:12:56.555Z,7.90
2018-11-05T13:15:26.946Z,9.47
2018-11-05T13:17:56.221Z,12.23
2018-11-05T13:20:25.571Z,10.43
2018-11-05T13:22:55.150Z,8.37
2018-11-05T13:25:24.710Z,21.43
2018-11-05T13:27:55.440Z,32.17
2018-11-05T13:30:24.539Z,14.93
2018-11-05T13:32:54.469Z,69.50
2018-11-05T13:35:25.080Z,15.67
2018-11-05T13:37:55.053Z,19.07
2018-11-05T13:40:24.578Z,11.57
2018-11-05T13:42:53.810Z,18.60
2018-11-05T13:45:23.170Z,14.30
2018-11-05T13:47:54.189Z,13.63
2018-11-05T13:50:22.658Z,32.67
2018-11-05T13:52:51.707Z,164.00
2018-11-05T13:55:21.208Z,58.73
2018-11-05T13:57:50.583Z,23.43
2018-11-05T14:00:21.174Z,23.67
2018-11-05T14:02:50.567Z,36.53
2018-11-05T14:05:19.882Z,24.60
2018-11-05T14:07:49.243Z,42.07
2018-11-05T14:10:20.622Z,35.40
2018-11-05T14:12:50.162Z,38.13
2018-11-05T14:15:19.768Z,33.40
2018-11-05T14:17:49.126Z,102.27
2018-11-05T14:20:19.546Z,49.50
2018-11-05T14:22:48.854Z,45.63
2018-11-05T14:25:19.271Z,32.37
2018-11-05T14:27:50.015Z,29.70
2018-11-05T14:30:19.190Z,20.90
2018-11-05T14:32:49.292Z,20.07
2018-11-05T14:35:18.970Z,30.33
2018-11-05T14:37:48.144Z,31.57
2018-11-05T14:40:18.029Z,100.20
2018-11-05T14:42:47.596Z,79.57
2018-11-05T14:45:18.139Z,18.87
2018-11-05T14:47:47.802Z,19.93
2018-11-05T14:50:18.617Z,14.93
2018-11-05T14:52:48.235Z,14.30
2018-11-05T14:55:18.671Z,33.47
2018-11-05T14:57:49.589Z,35.07
2018-11-05T15:00:20.629Z,43.37
2018-11-05T15:02:50.556Z,41.67
2018-11-05T15:05:19.746Z,26.90
2018-11-05T15:07:49.852Z,29.83
2018-11-05T15:10:20.366Z,34.83
2018-11-05T15:12:49.639Z,132.57
2018-11-05T15:15:19.391Z,98.47
2018-11-05T15:17:48.835Z,72.17
2018-11-05T15:20:19.577Z,100.47
2018-11-05T15:22:49.031Z,62.03
2018-11-05T15:25:18.794Z,210.87
2018-11-05T15:27:48.042Z,141.50
2018-11-05T15:30:18.469Z,113.07
2018-11-05T15:32:47.894Z,88.80
2018-11-05T15:35:17.383Z,61.50
2018-11-05T15:37:46.673Z,30.93
2018-11-05T15:40:17.442Z,29.30
2018-11-05T15:42:46.646Z,40.20
2018-11-05T15:45:17.533Z,26.57
2018-11-05T15:47:46.841Z,20.37
2018-11-05T15:50:19.106Z,18.50
2018-11-05T15:52:48.752Z,19.90
2018-11-05T15:55:17.941Z,19.90
2018-11-05T15:57:47.256Z,19.20
2018-11-05T16:00:23.902Z,21.10
2018-11-05T16:03:00.767Z,25.77
2018-11-05T16:05:29.970Z,25.60
2018-11-05T16:07:59.286Z,23.43
2018-11-05T16:10:28.545Z,40.13
2018-11-05T16:12:57.893Z,36.80
2018-11-05T16:15:27.114Z,35.20
2018-11-05T16:17:56.477Z,35.97
2018-11-05T16:20:25.733Z,25.77
2018-11-05T16:22:54.923Z,31.23
2018-11-05T16:25:24.143Z,25.53
2018-11-05T16:27:53.260Z,47.03
2018-11-05T16:30:22.808Z,46.83
2018-11-05T16:32:52.548Z,52.70
2018-11-05T16:35:21.969Z,59.13
2018-11-05T16:37:51.199Z,61.07
2018-11-05T16:40:20.954Z,61.27
2018-11-05T16:42:52.632Z,58.00
2018-11-05T16:45:21.818Z,78.97
2018-11-05T16:47:51.354Z,83.10
2018-11-05T16:50:23.257Z,69.53
2018-11-05T16:52:53.347Z,94.87
2018-11-05T16:55:36.874Z,81.97
2018-11-05T16:58:21.859Z,89.37
2018-11-05T17:01:02.988Z,84.27
2018-11-05T17:03:41.834Z,81.90
2018-11-05T17:06:21.464Z,72.40
2018-11-05T17:09:01.490Z,54.20
2018-11-05T17:18:18.817Z,74.53
2018-11-05T17:20:55.897Z,90.43
2018-11-05T17:23:26.724Z,109.40
2018-11-05T17:25:57.342Z,109.67
2018-11-05T17:28:27.990Z,109.00
2018-11-05T17:30:59.437Z,110.73
2018-11-05T17:33:31.198Z,100.70
2018-11-05T17:36:01.083Z,100.77
2018-11-05T17:38:30.337Z,98.27
2018-11-05T17:40:59.529Z,99.80
2018-11-05T17:43:28.718Z,84.50
2018-11-05T17:45:57.886Z,81.37
2018-11-05T17:48:27.205Z,87.43
2018-11-05T17:50:56.641Z,97.17
2018-11-05T17:53:26.038Z,128.77
2018-11-05T17:55:55.407Z,124.77
2018-11-05T17:58:24.603Z,123.63
2018-11-05T18:00:53.837Z,125.07
2018-11-05T18:03:23.186Z,201.77
2018-11-05T18:05:52.551Z,182.70
2018-11-05T18:08:21.907Z,202.63
2018-11-05T18:10:51.126Z,192.90
2018-11-05T18:13:20.452Z,204.07
2018-11-05T18:15:49.810Z,190.60
2018-11-05T18:18:19.085Z,176.13
2018-11-05T18:20:48.643Z,156.43
2018-11-05T18:23:18.022Z,159.47
2018-11-05T18:25:47.235Z,148.47
2018-11-05T18:28:16.626Z,144.93
2018-11-05T18:30:45.938Z,128.97
2018-11-05T18:33:15.204Z,119.43
2018-11-05T18:35:44.691Z,102.97
2018-11-05T18:38:14.240Z,105.93
2018-11-05T18:40:43.767Z,85.23
2018-11-05T18:43:13.272Z,84.13
2018-11-05T18:45:42.552Z,71.60
2018-11-05T18:48:15.864Z,58.60
2018-11-05T18:50:45.743Z,57.13
2018-11-05T18:53:15.564Z,44.93
2018-11-05T18:55:44.871Z,42.80
2018-11-05T18:58:19.841Z,42.73
2018-11-05T19:00:52.745Z,49.97
2018-11-05T19:03:27.026Z,49.07
2018-11-05T19:05:59.863Z,51.80
2018-11-05T19:08:35.360Z,41.10
2018-11-05T19:11:08.629Z,39.87
2018-11-05T19:13:43.130Z,39.77
2018-11-05T19:16:12.923Z,45.93
2018-11-05T19:18:42.148Z,41.67
2018-11-05T19:21:11.720Z,50.10
2018-11-05T19:23:41.250Z,57.30
2018-11-05T19:26:10.434Z,51.87
2018-11-05T19:28:40.041Z,45.47
2018-11-05T19:31:09.411Z,50.70
2018-11-05T19:33:38.720Z,42.20
2018-11-05T19:36:08.605Z,37.30
2018-11-05T19:38:37.988Z,33.83
2018-11-05T19:41:10.270Z,37.63
2018-11-05T19:43:39.483Z,24.37
2018-11-05T19:46:08.900Z,27.07
2018-11-05T19:48:38.581Z,32.23
2018-11-05T19:51:08.057Z,34.00
2018-11-05T19:53:37.288Z,45.67
2018-11-05T19:56:07.614Z,35.77
2018-11-05T19:58:37.168Z,41.20
2018-11-05T20:01:06.559Z,36.33
2018-11-05T20:03:36.213Z,36.37
2018-11-05T20:06:05.722Z,34.20
2018-11-05T20:08:35.090Z,37.17
2018-11-05T20:11:05.350Z,34.07
2018-11-05T20:13:34.726Z,29.77
2018-11-05T20:16:04.281Z,29.20
2018-11-05T20:18:34.626Z,43.57
2018-11-05T20:21:03.979Z,58.13
2018-11-05T20:23:33.304Z,53.50
2018-11-05T20:26:02.703Z,40.10
2018-11-05T20:28:32.355Z,49.90
2018-11-05T20:31:02.021Z,87.00
2018-11-05T20:33:31.656Z,80.43
2018-11-05T20:36:01.218Z,76.80
2018-11-05T20:38:30.417Z,78.87
2018-11-05T20:40:59.895Z,71.50
2018-11-05T20:43:29.406Z,68.87
2018-11-05T20:45:59.067Z,79.73
2018-11-05T20:48:28.419Z,63.43
2018-11-05T20:50:58.450Z,59.07
2018-11-05T20:53:27.762Z,49.33
2018-11-05T20:55:57.248Z,41.23
2018-11-05T20:58:26.767Z,39.40
2018-11-05T21:00:56.208Z,47.23
2018-11-05T21:03:25.635Z,50.43
2018-11-05T21:05:55.088Z,55.67
2018-11-05T21:08:24.384Z,53.20
2018-11-05T21:10:53.538Z,62.00
2018-11-05T21:13:23.154Z,56.60
2018-11-05T21:15:52.329Z,46.87
2018-11-05T21:18:24.635Z,52.73
2018-11-05T21:20:54.194Z,57.33
2018-11-05T21:23:23.398Z,65.20
2018-11-05T21:25:52.785Z,67.07
2018-11-05T21:28:22.125Z,70.40
2018-11-05T21:30:51.447Z,63.33
2018-11-05T21:33:21.609Z,61.23
2018-11-05T21:35:50.942Z,53.07
2018-11-05T21:38:20.022Z,58.60
2018-11-05T21:40:49.615Z,60.17
2018-11-05T21:43:19.027Z,61.93
2018-11-05T21:45:48.434Z,63.53
2018-11-05T21:48:17.790Z,71.53
2018-11-05T21:50:47.044Z,69.30
2018-11-05T21:53:16.246Z,58.50
2018-11-05T21:55:45.559Z,56.33
2018-11-05T21:58:14.927Z,48.37
2018-11-05T22:00:44.085Z,54.70
2018-11-05T22:03:15.346Z,57.87
2018-11-05T22:05:44.481Z,57.37
2018-11-05T22:08:13.705Z,52.60
2018-11-05T22:10:43.021Z,50.30
2018-11-05T22:13:12.370Z,60.67
2018-11-05T22:15:46.545Z,61.47
2018-11-05T22:18:16.417Z,60.43
2018-11-05T22:20:45.489Z,59.33
2018-11-05T22:23:15.214Z,59.63
2018-11-05T22:25:44.482Z,60.57
2018-11-05T22:28:13.726Z,70.90
2018-11-05T22:30:43.199Z,113.33
2018-11-05T22:33:12.331Z,170.27
2018-11-05T22:35:41.530Z,262.17
2018-11-05T22:38:11.014Z,190.07
2018-11-05T22:40:40.224Z,198.43
2018-11-05T22:43:09.632Z,172.03
2018-11-05T22:45:39.161Z,177.47
2018-11-05T22:48:08.515Z,168.60
2018-11-05T22:50:37.902Z,169.40
2018-11-05T22:53:07.287Z,171.30
2018-11-05T22:55:36.541Z,181.97
2018-11-05T22:58:06.049Z,165.63
2018-11-05T23:00:40.861Z,185.20
2018-11-05T23:03:14.990Z,189.47
2018-11-05T23:05:44.319Z,176.57
2018-11-05T23:08:13.638Z,163.93
2018-11-05T23:10:42.998Z,143.77
2018-11-05T23:13:12.308Z,148.37
2018-11-05T23:15:41.570Z,143.87
2018-11-05T23:18:11.024Z,142.27
2018-11-05T23:20:40.626Z,142.83
2018-11-05T23:23:09.897Z,147.60
2018-11-05T23:25:39.192Z,141.00
2018-11-05T23:28:08.601Z,151.50
2018-11-05T23:30:37.893Z,141.67
2018-11-05T23:33:07.176Z,162.97
2018-11-05T23:35:36.631Z,143.50
2018-11-05T23:38:06.078Z,155.20
2018-11-05T23:40:35.311Z,158.47
2018-11-05T23:43:04.721Z,143.60
2018-11-05T23:45:34.217Z,148.07
2018-11-05T23:48:03.601Z,152.30
2018-11-05T23:50:32.945Z,153.93
2018-11-05T23:53:02.218Z,153.37
2018-11-05T23:55:31.410Z,149.07
2018-11-05T23:58:00.546Z,142.03
